Time;durP1;ratioP1;P1;durP2;ratioP2;P2;SDS_P1;SDS_P2;PMS_P1;PMS_P2;Temp;Humidity;BMP_temperature;BMP_pressure;BME280_temperature;BME280_humidity;BME280_pressure;Samples;Min_cycle;Max_cycle;Signal;HPM_P1;HPM_P2
2022/06/13 00:02:19;;;;;;;3.97;3.65;;;;;;;;;;5058327;28;24536;-47
2022/06/13 00:04:44;;;;;;;4.45;4.05;;;;;;;;;;5054292;28;24513;-47
2022/06/13 00:07:09;;;;;;;4.20;3.80;;;;;;;;;;5061049;28;24472;-47
2022/06/13 00:09:34;;;;;;;3.72;3.33;;;;;;;;;;5061627;28;24945;-47
2022/06/13 00:11:59;;;;;;;4.00;3.60;;;;;;;;;;5070682;28;24418;-47
2022/06/13 00:14:25;;;;;;;3.30;3.10;;;;;;;;;;5061061;28;24418;-47
2022/06/13 00:16:50;;;;;;;4.00;3.60;;;;;;;;;;5077674;28;25296;-48
2022/06/13 00:19:15;;;;;;;4.40;4.00;;;;;;;;;;5057749;28;24506;-47
2022/06/13 00:21:40;;;;;;;4.10;3.70;;;;;;;;;;5060458;28;24821;-47
2022/06/13 00:24:07;;;;;;;3.73;3.43;;;;;;;;;;5067080;28;24866;-47
2022/06/13 00:26:32;;;;;;;4.10;3.80;;;;;;;;;;5058617;28;25201;-47
2022/06/13 00:28:58;;;;;;;4.60;3.50;;;;;;;;;;5054762;28;24656;-47
2022/06/13 00:31:23;;;;;;;4.32;3.92;;;;;;;;;;5058005;28;24510;-47
2022/06/13 00:33:49;;;;;;;3.80;3.50;;;;;;;;;;5062486;28;24431;-47
2022/06/13 00:36:15;;;;;;;3.73;3.43;;;;;;;;;;5063423;28;24430;-47
2022/06/13 00:38:40;;;;;;;4.40;3.63;;;;;;;;;;5054128;28;24777;-47
2022/06/13 00:41:13;;;;;;;3.70;3.43;;;;;;;;;;5053339;28;24575;-47
2022/06/13 00:43:39;;;;;;;3.80;3.50;;;;;;;;;;5065099;28;25172;-47
2022/06/13 00:46:22;;;;;;;4.30;3.88;;;;;;;;;;5059807;28;24801;-47
2022/06/13 00:48:50;;;;;;;4.33;3.93;;;;;;;;;;5062621;28;24427;-46
2022/06/13 00:51:15;;;;;;;3.78;3.47;;;;;;;;;;5061412;28;24605;-46
2022/06/13 00:53:40;;;;;;;4.20;3.80;;;;;;;;;;5058440;28;24518;-45
2022/06/13 00:56:09;;;;;;;4.00;3.70;;;;;;;;;;5063389;28;24559;-45
2022/06/13 00:58:37;;;;;;;3.70;3.40;;;;;;;;;;5057807;28;24984;-47
2022/06/13 01:01:03;;;;;;;4.20;3.80;;;;;;;;;;5063053;28;24430;-46
2022/06/13 01:03:29;;;;;;;4.20;3.80;;;;;;;;;;5061368;28;24441;-46
2022/06/13 01:05:55;;;;;;;3.93;3.63;;;;;;;;;;5073738;28;24580;-47
2022/06/13 01:08:22;;;;;;;4.30;3.90;;;;;;;;;;5059776;28;24976;-47
2022/06/13 01:13:49;;;;;;;4.97;3.80;;;;;;;;;;5057417;28;24426;-46
2022/06/13 01:16:25;;;;;;;4.15;3.80;;;;;;;;;;5063357;28;24427;-46
2022/06/13 01:18:59;;;;;;;4.72;4.30;;;;;;;;;;5060861;28;24461;-46
2022/06/13 01:21:43;;;;;;;4.75;4.35;;;;;;;;;;5057101;28;25019;-50
2022/06/13 01:24:36;;;;;;;4.80;4.40;;;;;;;;;;5055783;28;24419;-46
2022/06/13 01:27:10;;;;;;;4.70;4.30;;;;;;;;;;5062330;28;24475;-46
2022/06/13 01:29:53;;;;;;;4.90;4.50;;;;;;;;;;5074573;28;24521;-45
2022/06/13 01:32:36;;;;;;;4.30;3.90;;;;;;;;;;5064776;28;24557;-46
2022/06/13 01:35:36;;;;;;;4.75;4.35;;;;;;;;;;5055675;28;24506;-47
2022/06/13 01:38:04;;;;;;;5.00;4.50;;;;;;;;;;5037156;28;25063;-47
2022/06/13 01:40:29;;;;;;;5.18;4.68;;;;;;;;;;5050839;28;24446;-47
2022/06/13 01:43:03;;;;;;;5.30;4.80;;;;;;;;;;5065082;28;24417;-47
2022/06/13 01:45:44;;;;;;;5.60;5.10;;;;;;;;;;5051098;28;24996;-47
2022/06/13 01:48:17;;;;;;;4.65;4.25;;;;;;;;;;5060510;28;24479;-47
2022/06/13 01:50:45;;;;;;;4.40;4.10;;;;;;;;;;5057643;28;24431;-46
2022/06/13 01:53:29;;;;;;;4.65;4.20;;;;;;;;;;5064171;28;24564;-47
2022/06/13 01:56:04;;;;;;;4.63;4.32;;;;;;;;;;5065408;28;24476;-46
2022/06/13 01:58:35;;;;;;;5.30;4.80;;;;;;;;;;5057795;28;24423;-47
2022/06/13 02:01:06;;;;;;;5.17;4.77;;;;;;;;;;5051677;28;24445;-50
2022/06/13 02:03:35;;;;;;;5.20;4.80;;;;;;;;;;5060634;28;24973;-46
2022/06/13 02:06:02;;;;;;;4.90;4.50;;;;;;;;;;5048024;28;24437;-52
2022/06/13 02:08:35;;;;;;;4.90;4.50;;;;;;;;;;5060442;28;24498;-46
2022/06/13 02:11:23;;;;;;;4.75;4.35;;;;;;;;;;5068454;28;24430;-47
2022/06/13 02:13:54;;;;;;;4.53;4.13;;;;;;;;;;5056561;28;24475;-47
2022/06/13 02:16:25;;;;;;;4.75;4.35;;;;;;;;;;5054949;28;24891;-47
2022/06/13 02:18:54;;;;;;;4.30;4.00;;;;;;;;;;5056769;28;24430;-47
2022/06/13 02:21:21;;;;;;;4.78;4.38;;;;;;;;;;5054499;28;25104;-47
2022/06/13 02:23:49;;;;;;;4.90;4.50;;;;;;;;;;5063313;28;24418;-47
2022/06/13 02:26:19;;;;;;;5.50;4.47;;;;;;;;;;5067627;28;25257;-47
2022/06/13 02:28:49;;;;;;;5.30;4.80;;;;;;;;;;5060737;28;24430;-47
2022/06/13 02:31:17;;;;;;;5.45;4.95;;;;;;;;;;5058156;28;24968;-47
2022/06/13 02:33:46;;;;;;;6.13;5.53;;;;;;;;;;5055794;28;24449;-47
2022/06/13 02:36:16;;;;;;;5.55;5.05;;;;;;;;;;5057191;28;24511;-47
2022/06/13 02:38:55;;;;;;;5.20;4.80;;;;;;;;;;5064781;28;24660;-47
2022/06/13 02:41:23;;;;;;;5.18;4.78;;;;;;;;;;5058622;28;25006;-45
2022/06/13 02:43:51;;;;;;;5.93;5.33;;;;;;;;;;5052876;28;25062;-45
2022/06/13 02:46:19;;;;;;;5.60;5.10;;;;;;;;;;5068444;28;24450;-47
2022/06/13 02:49:03;;;;;;;5.55;5.03;;;;;;;;;;5060052;28;25187;-46
2022/06/13 02:51:47;;;;;;;4.90;4.40;;;;;;;;;;5059186;28;24521;-46
2022/06/13 02:54:31;;;;;;;5.20;4.70;;;;;;;;;;5055124;28;24488;-46
2022/06/13 02:57:23;;;;;;;5.43;4.80;;;;;;;;;;5070568;28;24433;-46
2022/06/13 02:59:51;;;;;;;4.82;4.43;;;;;;;;;;5049886;28;24419;-46
2022/06/13 03:02:22;;;;;;;5.70;5.20;;;;;;;;;;5061082;28;24518;-46
2022/06/13 03:04:51;;;;;;;5.70;5.10;;;;;;;;;;5055142;28;25043;-45
2022/06/13 03:07:20;;;;;;;5.55;4.90;;;;;;;;;;5055577;28;24415;-47
2022/06/13 03:09:45;;;;;;;5.10;4.40;;;;;;;;;;5052863;28;24478;-46
2022/06/13 03:12:14;;;;;;;4.40;4.00;;;;;;;;;;5063342;28;24461;-45
2022/06/13 03:14:41;;;;;;;3.80;3.40;;;;;;;;;;5069447;28;24431;-47
2022/06/13 03:17:23;;;;;;;4.88;3.40;;;;;;;;;;5065391;28;24472;-45
2022/06/13 03:19:48;;;;;;;3.63;3.33;;;;;;;;;;5057654;28;24456;-47
2022/06/13 03:22:20;;;;;;;6.03;3.50;;;;;;;;;;5058243;28;24485;-47
2022/06/13 03:24:49;;;;;;;3.80;3.10;;;;;;;;;;5073970;28;24426;-47
2022/06/13 03:27:33;;;;;;;3.92;3.47;;;;;;;;;;5063728;28;24458;-47
2022/06/13 03:30:05;;;;;;;3.70;3.40;;;;;;;;;;5075186;28;24419;-46
2022/06/13 03:32:33;;;;;;;3.88;2.80;;;;;;;;;;5052280;28;24419;-46
2022/06/13 03:35:00;;;;;;;5.10;3.50;;;;;;;;;;5068168;28;24418;-47
2022/06/13 03:37:37;;;;;;;5.30;3.30;;;;;;;;;;5073540;28;24422;-46
2022/06/13 03:40:06;;;;;;;6.28;3.15;;;;;;;;;;5060753;28;24433;-45
2022/06/13 03:42:38;;;;;;;4.68;3.20;;;;;;;;;;5063575;28;25022;-45
2022/06/13 03:45:07;;;;;;;5.18;3.20;;;;;;;;;;5072536;28;24434;-46
2022/06/13 03:47:41;;;;;;;3.80;3.00;;;;;;;;;;5073011;28;24523;-46
2022/06/13 03:50:23;;;;;;;4.25;3.58;;;;;;;;;;5067145;28;24455;-46
2022/06/13 03:52:51;;;;;;;3.95;3.00;;;;;;;;;;5070359;28;24421;-47
2022/06/13 03:55:19;;;;;;;4.55;3.08;;;;;;;;;;5066755;28;25003;-46
2022/06/13 03:57:52;;;;;;;4.30;3.50;;;;;;;;;;5070045;28;25086;-46
2022/06/13 04:00:21;;;;;;;4.20;3.20;;;;;;;;;;5075823;28;24892;-46
2022/06/13 04:02:46;;;;;;;4.13;3.17;;;;;;;;;;5083056;28;24513;-46
2022/06/13 04:05:25;;;;;;;4.63;3.20;;;;;;;;;;5077905;28;25184;-47
2022/06/13 04:07:50;;;;;;;3.60;3.28;;;;;;;;;;5065900;28;24425;-47
2022/06/13 04:10:16;;;;;;;4.20;3.17;;;;;;;;;;5068589;28;24418;-46
2022/06/13 04:12:56;;;;;;;4.13;2.78;;;;;;;;;;5077171;28;24799;-46
2022/06/13 04:15:27;;;;;;;5.60;3.10;;;;;;;;;;5078284;28;25023;-47
2022/06/13 04:18:00;;;;;;;3.20;2.90;;;;;;;;;;5064039;28;24422;-46
2022/06/13 04:20:30;;;;;;;3.40;3.10;;;;;;;;;;5066725;28;24442;-46
2022/06/13 04:23:12;;;;;;;4.35;3.50;;;;;;;;;;5066544;28;24878;-46
2022/06/13 04:25:56;;;;;;;4.30;2.85;;;;;;;;;;5068180;28;24427;-46
2022/06/13 04:28:28;;;;;;;5.13;3.30;;;;;;;;;;5076207;28;24430;-46
2022/06/13 04:30:54;;;;;;;5.17;3.50;;;;;;;;;;5068154;28;24441;-46
2022/06/13 04:33:22;;;;;;;3.30;3.00;;;;;;;;;;5069260;28;24948;-46
2022/06/13 04:35:48;;;;;;;3.45;3.00;;;;;;;;;;5062326;28;24509;-46
2022/06/13 04:38:15;;;;;;;3.88;3.20;;;;;;;;;;5066716;28;25032;-46
2022/06/13 04:40:42;;;;;;;5.00;3.30;;;;;;;;;;5078430;28;25034;-47
2022/06/13 04:43:09;;;;;;;4.67;3.40;;;;;;;;;;5056966;28;24496;-48
2022/06/13 04:45:47;;;;;;;6.10;3.50;;;;;;;;;;5062598;28;24512;-47
2022/06/13 04:48:12;;;;;;;6.82;3.42;;;;;;;;;;5064434;28;24410;-47
2022/06/13 04:50:41;;;;;;;3.92;3.38;;;;;;;;;;5064327;28;24452;-47
2022/06/13 04:53:11;;;;;;;5.40;3.42;;;;;;;;;;5062039;28;24921;-48
2022/06/13 04:55:44;;;;;;;5.50;3.40;;;;;;;;;;5063577;28;24419;-47
2022/06/13 04:58:16;;;;;;;5.38;3.70;;;;;;;;;;5062035;28;24584;-47
2022/06/13 05:00:42;;;;;;;4.13;3.30;;;;;;;;;;5063915;28;24443;-47
2022/06/13 05:03:15;;;;;;;3.53;3.00;;;;;;;;;;5063631;28;25382;-47
2022/06/13 05:05:43;;;;;;;5.20;3.67;;;;;;;;;;5065299;28;24414;-47
2022/06/13 05:08:09;;;;;;;4.70;3.40;;;;;;;;;;5076670;28;24445;-47
2022/06/13 05:10:37;;;;;;;4.85;3.10;;;;;;;;;;5061969;28;24480;-47
2022/06/13 05:13:02;;;;;;;3.80;3.40;;;;;;;;;;5063080;28;24426;-46
2022/06/13 05:15:30;;;;;;;4.10;2.90;;;;;;;;;;5070190;28;24426;-46
2022/06/13 05:18:04;;;;;;;3.15;2.85;;;;;;;;;;5060778;28;24564;-47
2022/06/13 05:20:48;;;;;;;3.60;3.30;;;;;;;;;;5053858;28;24950;-46
2022/06/13 05:23:19;;;;;;;5.57;3.10;;;;;;;;;;5043783;28;24487;-47
2022/06/13 05:25:48;;;;;;;3.55;3.05;;;;;;;;;;5074553;28;24429;-48
2022/06/13 05:28:18;;;;;;;4.47;3.15;;;;;;;;;;5073073;28;24490;-47
2022/06/13 05:30:45;;;;;;;4.38;2.80;;;;;;;;;;5057964;28;24387;-47
2022/06/13 05:33:14;;;;;;;4.32;3.13;;;;;;;;;;5062492;28;24942;-48
2022/06/13 05:35:43;;;;;;;4.25;3.20;;;;;;;;;;5061157;28;24442;-47
2022/06/13 05:38:12;;;;;;;3.00;2.60;;;;;;;;;;5062698;28;24386;-46
2022/06/13 05:40:37;;;;;;;3.13;2.80;;;;;;;;;;5063112;28;24465;-46
2022/06/13 05:43:02;;;;;;;4.47;3.10;;;;;;;;;;5056864;28;24398;-46
2022/06/13 05:45:28;;;;;;;4.88;3.00;;;;;;;;;;5059189;28;25091;-46
2022/06/13 05:47:53;;;;;;;4.55;2.97;;;;;;;;;;5064952;28;24411;-46
2022/06/13 05:50:20;;;;;;;3.83;3.00;;;;;;;;;;5072963;28;24970;-47
2022/06/13 05:52:45;;;;;;;3.95;3.08;;;;;;;;;;5055472;28;25039;-46
2022/06/13 05:55:11;;;;;;;5.20;3.00;;;;;;;;;;5058658;28;24721;-47
2022/06/13 05:57:36;;;;;;;3.83;2.80;;;;;;;;;;5054068;28;24418;-46
2022/06/13 06:00:02;;;;;;;3.35;2.60;;;;;;;;;;5069901;28;24429;-46
2022/06/13 06:02:27;;;;;;;5.28;3.00;;;;;;;;;;5058081;28;24423;-47
2022/06/13 06:04:53;;;;;;;3.00;2.65;;;;;;;;;;5076985;28;24447;-47
2022/06/13 06:07:18;;;;;;;3.15;2.60;;;;;;;;;;5078639;28;25030;-47
2022/06/13 06:09:43;;;;;;;4.03;2.70;;;;;;;;;;5070418;28;24410;-47
2022/06/13 06:12:08;;;;;;;5.20;3.20;;;;;;;;;;5070195;28;24820;-47
2022/06/13 06:14:33;;;;;;;4.40;2.80;;;;;;;;;;5073911;28;25050;-47
2022/06/13 06:16:58;;;;;;;4.30;2.60;;;;;;;;;;5060964;28;24419;-47
2022/06/13 06:19:24;;;;;;;3.60;2.83;;;;;;;;;;5063166;28;24784;-47
2022/06/13 06:21:49;;;;;;;2.70;2.50;;;;;;;;;;5057933;28;24510;-47
2022/06/13 06:24:14;;;;;;;3.63;3.00;;;;;;;;;;5056524;28;24497;-46
2022/06/13 06:26:39;;;;;;;4.32;2.97;;;;;;;;;;5069888;28;24964;-46
2022/06/13 06:29:04;;;;;;;3.63;2.60;;;;;;;;;;5067622;28;24430;-47
2022/06/13 06:31:29;;;;;;;5.67;3.00;;;;;;;;;;5081294;28;24544;-47
2022/06/13 06:33:54;;;;;;;5.50;3.50;;;;;;;;;;5060368;28;24797;-47
2022/06/13 06:36:20;;;;;;;3.40;2.58;;;;;;;;;;5068099;28;24474;-47
2022/06/13 06:38:45;;;;;;;5.60;2.92;;;;;;;;;;5068610;28;24505;-47
2022/06/13 06:41:11;;;;;;;4.30;3.17;;;;;;;;;;5076988;28;24964;-47
2022/06/13 06:43:36;;;;;;;5.60;3.28;;;;;;;;;;5069351;28;24531;-47
2022/06/13 06:46:01;;;;;;;2.60;2.40;;;;;;;;;;5077239;28;24449;-46
2022/06/13 06:48:27;;;;;;;5.77;2.33;;;;;;;;;;5074301;28;24472;-45
2022/06/13 06:50:53;;;;;;;5.80;2.83;;;;;;;;;;5080450;28;24409;-49
2022/06/13 06:53:19;;;;;;;4.23;2.70;;;;;;;;;;5076795;28;24390;-46
2022/06/13 07:01:13;;;;;;;4.20;2.60;;;;;;;;;;5060320;28;24432;-47
2022/06/13 07:03:39;;;;;;;3.78;3.10;;;;;;;;;;5058452;28;25203;-47
2022/06/13 07:06:04;;;;;;;5.50;2.90;;;;;;;;;;5057340;28;24426;-47
2022/06/13 07:08:30;;;;;;;3.75;2.50;;;;;;;;;;5062105;28;24943;-46
2022/06/13 07:11:53;;;;;;;4.17;2.90;;;;;;;;;;5062160;28;24391;-46
2022/06/13 07:13:43;;;;;;;5.20;2.85;;;;;;;;;;5056361;28;24816;-47
2022/06/13 07:16:08;;;;;;;3.47;2.60;;;;;;;;;;5056186;28;25019;-47
2022/06/13 07:18:33;;;;;;;4.82;2.50;;;;;;;;;;5065516;28;24467;-47
2022/06/13 07:20:59;;;;;;;2.42;2.22;;;;;;;;;;5064100;28;24440;-46
2022/06/13 07:23:24;;;;;;;4.47;3.00;;;;;;;;;;5065091;28;24393;-46
2022/06/13 07:25:49;;;;;;;2.40;2.20;;;;;;;;;;5064482;28;24408;-46
2022/06/13 07:28:14;;;;;;;4.13;2.85;;;;;;;;;;5059834;28;24383;-46
2022/06/13 07:30:39;;;;;;;4.40;2.60;;;;;;;;;;5058001;28;24422;-47
2022/06/13 07:33:04;;;;;;;2.70;2.30;;;;;;;;;;5063284;28;24506;-46
2022/06/13 07:35:29;;;;;;;4.20;2.40;;;;;;;;;;5064029;28;24387;-46
2022/06/13 07:40:39;;;;;;;3.92;2.70;;;;;;;;;;5059737;28;24422;-46
2022/06/13 07:43:06;;;;;;;4.60;2.60;;;;;;;;;;5061390;28;24388;-47
2022/06/13 07:45:34;;;;;;;4.78;2.70;;;;;;;;;;5062996;28;25049;-46
2022/06/13 07:47:59;;;;;;;4.80;2.63;;;;;;;;;;5060857;28;24987;-47
2022/06/13 07:50:25;;;;;;;3.53;2.60;;;;;;;;;;5060227;28;24414;-46
2022/06/13 07:52:51;;;;;;;5.40;2.70;;;;;;;;;;5059572;28;24429;-47
2022/06/13 07:55:17;;;;;;;4.65;2.70;;;;;;;;;;5061415;28;24814;-46
2022/06/13 07:57:42;;;;;;;3.57;2.70;;;;;;;;;;5064635;28;24441;-47
2022/06/13 08:00:09;;;;;;;4.47;2.67;;;;;;;;;;5062133;28;24490;-47
2022/06/13 08:02:35;;;;;;;4.73;2.60;;;;;;;;;;5064456;28;24422;-47
2022/06/13 08:05:00;;;;;;;3.72;2.90;;;;;;;;;;5059371;28;24403;-47
2022/06/13 08:07:26;;;;;;;6.20;3.10;;;;;;;;;;5061015;28;24453;-47
2022/06/13 08:09:51;;;;;;;2.93;2.10;;;;;;;;;;5062011;28;24420;-48
2022/06/13 08:12:17;;;;;;;4.70;2.50;;;;;;;;;;5063516;28;24836;-47
2022/06/13 08:14:45;;;;;;;5.28;2.72;;;;;;;;;;5064500;28;24876;-47
2022/06/13 08:17:11;;;;;;;4.75;2.80;;;;;;;;;;5060939;28;24393;-46
2022/06/13 08:19:36;;;;;;;5.05;2.70;;;;;;;;;;5059295;28;24749;-47
2022/06/13 08:22:02;;;;;;;4.80;2.70;;;;;;;;;;5061319;28;25143;-47
2022/06/13 08:24:27;;;;;;;5.67;2.70;;;;;;;;;;5064247;28;24402;-47
2022/06/13 08:26:52;;;;;;;5.93;2.90;;;;;;;;;;5064255;28;24963;-47
2022/06/13 08:29:17;;;;;;;3.58;3.10;;;;;;;;;;5060582;28;24411;-47
2022/06/13 08:31:42;;;;;;;4.78;3.13;;;;;;;;;;5057680;28;24559;-46
2022/06/13 08:34:07;;;;;;;3.85;2.70;;;;;;;;;;5058507;28;24457;-47
2022/06/13 08:36:32;;;;;;;6.07;2.73;;;;;;;;;;5064029;28;24426;-47
2022/06/13 08:38:58;;;;;;;6.82;2.92;;;;;;;;;;5064230;28;24387;-47
2022/06/13 08:41:31;;;;;;;6.20;2.70;;;;;;;;;;5057583;28;24451;-47
2022/06/13 08:44:16;;;;;;;5.20;2.60;;;;;;;;;;5058306;28;24421;-46
2022/06/13 08:46:44;;;;;;;2.90;2.20;;;;;;;;;;5063844;28;24971;-46
2022/06/13 08:49:10;;;;;;;4.03;2.30;;;;;;;;;;5062090;28;24390;-47
2022/06/13 08:51:43;;;;;;;3.30;2.40;;;;;;;;;;5060852;28;24438;-47
2022/06/13 08:54:10;;;;;;;3.28;2.38;;;;;;;;;;5038133;28;24831;-47
2022/06/13 08:56:36;;;;;;;4.50;2.67;;;;;;;;;;5040050;28;24449;-47
2022/06/13 08:59:23;;;;;;;5.72;2.55;;;;;;;;;;5041970;28;24423;-47
2022/06/13 09:02:02;;;;;;;5.17;2.90;;;;;;;;;;5043874;28;24443;-47
2022/06/13 09:04:36;;;;;;;4.20;2.80;;;;;;;;;;5043480;28;25192;-47
2022/06/13 09:07:05;;;;;;;3.78;2.45;;;;;;;;;;5040027;28;24449;-47
2022/06/13 09:09:51;;;;;;;4.60;2.80;;;;;;;;;;5039030;28;25128;-47
2022/06/13 09:12:19;;;;;;;4.30;2.70;;;;;;;;;;5059942;28;24539;-47
2022/06/13 09:14:47;;;;;;;5.15;2.90;;;;;;;;;;5063672;28;24421;-47
2022/06/13 09:17:20;;;;;;;3.88;2.50;;;;;;;;;;5061473;28;24406;-47
2022/06/13 09:20:04;;;;;;;5.00;2.50;;;;;;;;;;5057955;28;24406;-48
2022/06/13 09:22:51;;;;;;;5.40;2.70;;;;;;;;;;5062797;28;24427;-47
2022/06/13 09:25:23;;;;;;;4.60;2.60;;;;;;;;;;5063168;28;24420;-47
2022/06/13 09:27:58;;;;;;;5.85;2.80;;;;;;;;;;5063210;28;24394;-47
2022/06/13 09:30:26;;;;;;;3.42;2.70;;;;;;;;;;5057735;28;24854;-47
2022/06/13 09:32:55;;;;;;;6.80;3.00;;;;;;;;;;5056482;28;24461;-46
2022/06/13 09:35:44;;;;;;;3.88;2.53;;;;;;;;;;5061013;28;24699;-46
2022/06/13 09:38:29;;;;;;;4.53;2.88;;;;;;;;;;5050272;28;24422;-46
2022/06/13 09:41:00;;;;;;;5.20;2.90;;;;;;;;;;5048369;28;24430;-45
2022/06/13 09:43:33;;;;;;;3.13;2.38;;;;;;;;;;5058112;28;24461;-47
2022/06/13 09:45:58;;;;;;;4.40;2.80;;;;;;;;;;5059021;28;24793;-46
2022/06/13 09:48:42;;;;;;;3.47;2.40;;;;;;;;;;5062894;28;24757;-47
2022/06/13 09:51:26;;;;;;;5.47;2.70;;;;;;;;;;5063099;28;24534;-46
2022/06/13 09:53:59;;;;;;;5.30;3.15;;;;;;;;;;5061591;28;24485;-46
2022/06/13 09:56:30;;;;;;;4.22;2.92;;;;;;;;;;5057337;28;24398;-46
2022/06/13 09:59:14;;;;;;;3.92;2.80;;;;;;;;;;5059320;28;24502;-45
2022/06/13 10:01:56;;;;;;;7.70;2.93;;;;;;;;;;5062260;28;24432;-47
2022/06/13 10:04:29;;;;;;;4.78;3.20;;;;;;;;;;5059156;28;24434;-46
2022/06/13 10:07:13;;;;;;;4.80;3.23;;;;;;;;;;5063009;28;25000;-46
2022/06/13 10:09:44;;;;;;;5.45;2.83;;;;;;;;;;5057039;28;24664;-47
2022/06/13 10:12:29;;;;;;;3.38;2.50;;;;;;;;;;5061001;28;24399;-48
2022/06/13 10:15:00;;;;;;;3.72;3.10;;;;;;;;;;5060379;28;24457;-47
2022/06/13 10:17:25;;;;;;;3.20;2.90;;;;;;;;;;5039222;28;24403;-47
2022/06/13 10:20:06;;;;;;;5.33;3.50;;;;;;;;;;5037171;28;24398;-48
2022/06/13 10:22:38;;;;;;;4.82;2.90;;;;;;;;;;5053305;28;24553;-48
2022/06/13 10:25:15;;;;;;;4.15;2.83;;;;;;;;;;5059729;28;25034;-48
2022/06/13 10:27:47;;;;;;;5.30;2.80;;;;;;;;;;5062599;28;24518;-47
2022/06/13 10:30:12;;;;;;;5.55;2.90;;;;;;;;;;5060858;28;24398;-47
2022/06/13 10:32:45;;;;;;;4.43;2.87;;;;;;;;;;5060566;28;24387;-47
2022/06/13 10:35:10;;;;;;;4.50;3.03;;;;;;;;;;5055512;28;24410;-46
2022/06/13 10:37:42;;;;;;;5.32;3.03;;;;;;;;;;5057954;28;24730;-47
2022/06/13 10:40:07;;;;;;;3.42;2.90;;;;;;;;;;5060959;28;24898;-47
2022/06/13 10:42:33;;;;;;;2.87;2.67;;;;;;;;;;5062150;28;25255;-46
2022/06/13 10:44:59;;;;;;;5.00;3.25;;;;;;;;;;5060684;28;24450;-47
2022/06/13 10:47:28;;;;;;;4.10;3.00;;;;;;;;;;5057124;28;24905;-47
2022/06/13 10:49:59;;;;;;;5.07;3.10;;;;;;;;;;5057407;28;24387;-46
2022/06/13 10:52:30;;;;;;;5.63;3.30;;;;;;;;;;5066395;28;24628;-48
2022/06/13 10:54:56;;;;;;;6.40;3.00;;;;;;;;;;5064741;28;24398;-48
2022/06/13 10:57:26;;;;;;;4.75;3.22;;;;;;;;;;5064272;28;24398;-47
2022/06/13 11:00:09;;;;;;;3.47;3.00;;;;;;;;;;5062479;28;24387;-45
2022/06/13 11:02:34;;;;;;;4.88;3.05;;;;;;;;;;5061906;28;24468;-46
2022/06/13 11:05:05;;;;;;;4.18;3.08;;;;;;;;;;5063825;28;24387;-47
2022/06/13 11:07:32;;;;;;;5.27;3.00;;;;;;;;;;5064793;28;24967;-46
2022/06/13 11:09:58;;;;;;;5.68;3.05;;;;;;;;;;5065845;28;24457;-47
2022/06/13 11:12:25;;;;;;;3.60;3.10;;;;;;;;;;5062211;28;24390;-47
2022/06/13 11:23:21;;;;;;;3.88;2.67;;;;;;;;;;5034766;28;24956;-46
2022/06/13 11:25:54;;;;;;;4.22;2.83;;;;;;;;;;5065346;28;24394;-46
2022/06/13 11:28:22;;;;;;;4.85;2.42;;;;;;;;;;5059131;28;25017;-46
2022/06/13 11:30:48;;;;;;;3.45;2.58;;;;;;;;;;5061680;28;24455;-47
2022/06/13 11:33:15;;;;;;;3.90;2.40;;;;;;;;;;5065815;28;24788;-45
2022/06/13 11:35:42;;;;;;;3.70;3.00;;;;;;;;;;5064942;28;24421;-46
2022/06/13 11:38:22;;;;;;;3.20;2.50;;;;;;;;;;5061067;28;24471;-46
2022/06/13 11:41:08;;;;;;;4.75;2.90;;;;;;;;;;5061221;28;24619;-46
2022/06/13 11:43:36;;;;;;;6.67;2.90;;;;;;;;;;5050043;28;24414;-46
2022/06/13 11:46:02;;;;;;;3.58;2.30;;;;;;;;;;5063762;28;24386;-48
2022/06/13 11:48:28;;;;;;;4.93;2.50;;;;;;;;;;5063680;28;24422;-46
2022/06/13 11:50:59;;;;;;;4.97;2.40;;;;;;;;;;5063334;28;24429;-46
2022/06/13 11:53:36;;;;;;;4.40;2.67;;;;;;;;;;5061330;28;24395;-45
2022/06/13 11:56:03;;;;;;;4.30;3.15;;;;;;;;;;5061342;28;24399;-46
2022/06/13 11:58:30;;;;;;;4.47;2.47;;;;;;;;;;5064005;28;24430;-46
2022/06/13 12:01:10;;;;;;;4.70;2.60;;;;;;;;;;5064820;28;24426;-47
2022/06/13 12:03:36;;;;;;;3.13;2.42;;;;;;;;;;5060177;28;25061;-46
2022/06/13 12:06:10;;;;;;;4.25;2.45;;;;;;;;;;5063116;28;24413;-46
2022/06/13 12:08:36;;;;;;;3.50;2.45;;;;;;;;;;5063900;28;24395;-47
2022/06/13 12:11:06;;;;;;;3.10;2.57;;;;;;;;;;5061726;28;24430;-46
2022/06/13 12:13:37;;;;;;;3.00;2.50;;;;;;;;;;5063092;28;24986;-47
2022/06/13 12:16:17;;;;;;;3.70;2.40;;;;;;;;;;5059378;28;24422;-47
2022/06/13 12:18:49;;;;;;;4.10;2.42;;;;;;;;;;5062665;28;24493;-47
2022/06/13 12:21:25;;;;;;;5.70;2.70;;;;;;;;;;5059017;28;24500;-47
2022/06/13 12:23:58;;;;;;;5.63;2.67;;;;;;;;;;5064286;28;24476;-47
2022/06/13 12:26:34;;;;;;;4.77;2.67;;;;;;;;;;5059092;28;24427;-47
2022/06/13 12:29:17;;;;;;;6.38;2.78;;;;;;;;;;5058762;28;24391;-47
2022/06/13 12:32:02;;;;;;;5.00;2.05;;;;;;;;;;5059250;28;24391;-46
2022/06/13 12:34:35;;;;;;;6.05;2.20;;;;;;;;;;5040560;28;24510;-47
2022/06/13 12:37:03;;;;;;;3.90;2.10;;;;;;;;;;5060880;28;24415;-47
2022/06/13 12:39:46;;;;;;;3.57;2.40;;;;;;;;;;5064436;28;25233;-46
2022/06/13 12:42:14;;;;;;;4.85;1.98;;;;;;;;;;5058450;28;25031;-47
2022/06/13 12:44:42;;;;;;;5.60;2.30;;;;;;;;;;5062206;28;24973;-46
2022/06/13 12:47:26;;;;;;;2.65;1.85;;;;;;;;;;5059827;28;24536;-46
2022/06/13 12:49:56;;;;;;;3.10;2.10;;;;;;;;;;5063896;28;24901;-47
2022/06/13 12:52:34;;;;;;;3.10;2.20;;;;;;;;;;5061812;28;24832;-47
2022/06/13 12:55:15;;;;;;;3.50;2.30;;;;;;;;;;5059828;28;24488;-47
2022/06/13 12:57:41;;;;;;;2.70;1.90;;;;;;;;;;5059127;28;24945;-47
2022/06/13 13:00:09;;;;;;;3.35;1.77;;;;;;;;;;5062244;28;24916;-46
2022/06/13 13:02:45;;;;;;;2.22;1.65;;;;;;;;;;5063277;28;24867;-46
2022/06/13 13:05:17;;;;;;;2.60;2.00;;;;;;;;;;5059807;28;24395;-46
2022/06/13 13:07:52;;;;;;;1.70;1.60;;;;;;;;;;5055446;28;24498;-46
2022/06/13 13:10:25;;;;;;;2.70;1.75;;;;;;;;;;5063746;28;24920;-46
2022/06/13 13:13:10;;;;;;;5.65;1.77;;;;;;;;;;5063388;28;24456;-46
2022/06/13 13:15:35;;;;;;;2.67;1.50;;;;;;;;;;5062572;28;25039;-46
2022/06/13 13:18:23;;;;;;;4.43;2.00;;;;;;;;;;5058436;28;25061;-48
2022/06/13 13:21:00;;;;;;;1.83;1.70;;;;;;;;;;5053272;28;24418;-47
2022/06/13 13:23:25;;;;;;;4.80;1.70;;;;;;;;;;5061520;28;25071;-47
2022/06/13 13:25:57;;;;;;;1.80;1.50;;;;;;;;;;5067670;28;24525;-47
2022/06/13 13:28:25;;;;;;;1.90;1.80;;;;;;;;;;5061912;28;24867;-47
2022/06/13 13:31:02;;;;;;;2.47;1.58;;;;;;;;;;5063373;28;24483;-47
2022/06/13 13:33:47;;;;;;;2.85;1.77;;;;;;;;;;5038063;28;25139;-47
2022/06/13 13:36:17;;;;;;;2.00;1.75;;;;;;;;;;5042560;28;24391;-47
2022/06/13 13:38:50;;;;;;;1.92;1.45;;;;;;;;;;5063505;28;24532;-47
2022/06/13 13:41:22;;;;;;;2.95;1.52;;;;;;;;;;5059894;28;24494;-46
2022/06/13 13:43:50;;;;;;;3.00;1.70;;;;;;;;;;5054005;28;24445;-46
2022/06/13 13:46:23;;;;;;;1.50;1.40;;;;;;;;;;5059154;28;24513;-48
2022/06/13 13:48:54;;;;;;;1.85;1.55;;;;;;;;;;5060800;28;24991;-47
2022/06/13 13:51:22;;;;;;;2.28;1.63;;;;;;;;;;5061694;28;24407;-46
2022/06/13 13:53:56;;;;;;;2.10;1.50;;;;;;;;;;5060554;28;24403;-46
2022/06/13 13:56:28;;;;;;;2.20;1.70;;;;;;;;;;5054860;28;25536;-46
2022/06/13 13:58:54;;;;;;;2.60;1.60;;;;;;;;;;5053088;28;25542;-46
2022/06/13 14:01:23;;;;;;;2.33;1.50;;;;;;;;;;5062144;28;24465;-46
2022/06/13 14:04:03;;;;;;;2.13;1.30;;;;;;;;;;5062427;28;24419;-47
2022/06/13 14:06:36;;;;;;;2.60;1.60;;;;;;;;;;5059861;28;24437;-47
2022/06/13 14:09:05;;;;;;;2.28;1.50;;;;;;;;;;5067710;28;24505;-47
2022/06/13 14:11:31;;;;;;;1.50;1.40;;;;;;;;;;5081699;28;24413;-47
2022/06/13 14:14:01;;;;;;;2.30;1.57;;;;;;;;;;5061256;28;24407;-47
2022/06/13 14:16:26;;;;;;;1.58;1.27;;;;;;;;;;5060174;28;24423;-45
2022/06/13 14:19:11;;;;;;;1.60;1.50;;;;;;;;;;5059523;28;24426;-47
2022/06/13 14:21:49;;;;;;;2.00;1.30;;;;;;;;;;5064470;28;24433;-47
2022/06/13 14:24:16;;;;;;;2.50;1.60;;;;;;;;;;5061115;28;24453;-46
2022/06/13 14:26:44;;;;;;;2.42;1.30;;;;;;;;;;5066261;28;25003;-47
2022/06/13 14:29:14;;;;;;;2.90;1.70;;;;;;;;;;5063124;28;24429;-47
2022/06/13 14:31:51;;;;;;;1.75;1.58;;;;;;;;;;5064999;28;24403;-47
2022/06/13 14:37:20;;;;;;;2.00;1.70;;;;;;;;;;5064820;28;24441;-46
2022/06/13 14:39:48;;;;;;;2.00;1.60;;;;;;;;;;5066657;28;24824;-47
2022/06/13 14:42:16;;;;;;;2.77;1.50;;;;;;;;;;5062961;28;24705;-47
2022/06/13 14:44:46;;;;;;;2.33;1.50;;;;;;;;;;5066350;28;24735;-46
2022/06/13 14:47:15;;;;;;;1.80;1.40;;;;;;;;;;5062845;28;24461;-47
2022/06/13 14:49:46;;;;;;;1.83;1.60;;;;;;;;;;5061183;28;24390;-47
2022/06/13 14:52:13;;;;;;;3.47;1.90;;;;;;;;;;5064560;28;24448;-46
2022/06/13 14:54:49;;;;;;;3.60;1.90;;;;;;;;;;5064113;28;24418;-46
2022/06/13 14:57:27;;;;;;;2.60;1.80;;;;;;;;;;5064094;28;24419;-46
2022/06/13 15:00:07;;;;;;;2.70;1.98;;;;;;;;;;5062571;28;25198;-46
2022/06/13 15:02:34;;;;;;;3.33;2.08;;;;;;;;;;5062880;28;24422;-47
2022/06/13 15:05:00;;;;;;;2.08;1.90;;;;;;;;;;5062239;28;25051;-47
2022/06/13 15:07:30;;;;;;;4.68;1.95;;;;;;;;;;5065033;28;24534;-48
2022/06/13 15:09:59;;;;;;;3.75;2.40;;;;;;;;;;5063901;28;24467;-46
2022/06/13 15:12:27;;;;;;;4.40;2.60;;;;;;;;;;5060390;28;24403;-47
2022/06/13 15:14:58;;;;;;;3.08;2.10;;;;;;;;;;5062413;28;24405;-45
2022/06/13 15:17:23;;;;;;;3.25;2.17;;;;;;;;;;5064391;28;24940;-47
2022/06/13 15:19:51;;;;;;;2.40;1.90;;;;;;;;;;5065926;28;24452;-47
2022/06/13 15:22:19;;;;;;;3.10;2.20;;;;;;;;;;5063608;28;24769;-47
2022/06/13 15:24:46;;;;;;;2.10;1.90;;;;;;;;;;5062480;28;25643;-47
2022/06/13 15:27:11;;;;;;;4.57;2.30;;;;;;;;;;5060202;28;24482;-46